createdAt,value
2023-03-04T00:01:03.188Z,11.55
2023-03-04T00:03:31.778Z,12.43
2023-03-04T00:06:00.085Z,13.63
2023-03-04T00:08:28.788Z,16.67
2023-03-04T00:10:57.062Z,12.43
2023-03-04T00:13:25.821Z,11.85
2023-03-04T00:15:54.119Z,14.02
2023-03-04T00:18:22.723Z,14.85
2023-03-04T00:20:51.074Z,11.00
2023-03-04T00:23:19.802Z,12.45
2023-03-04T00:25:48.038Z,18.65
2023-03-04T00:28:16.913Z,11.77
2023-03-04T00:30:45.209Z,13.82
2023-03-04T00:33:13.798Z,14.60
2023-03-04T00:35:42.253Z,14.20
2023-03-04T00:38:11.001Z,16.95
2023-03-04T00:40:39.342Z,14.20
2023-03-04T00:43:07.909Z,13.65
2023-03-04T00:45:36.361Z,15.02
2023-03-04T00:48:05.179Z,13.98
2023-03-04T00:50:33.480Z,13.38
2023-03-04T00:53:02.268Z,14.52
2023-03-04T00:55:30.558Z,14.60
2023-03-04T00:57:59.170Z,13.75
2023-03-04T01:00:27.442Z,9.85
2023-03-04T01:02:56.160Z,12.65
2023-03-04T01:05:24.649Z,14.55
2023-03-04T01:07:53.434Z,10.77
2023-03-04T01:10:22.096Z,15.30
2023-03-04T01:12:50.929Z,17.17
2023-03-04T01:15:19.496Z,13.20
2023-03-04T01:17:48.458Z,14.27
2023-03-04T01:20:17.220Z,13.65
2023-03-04T01:22:45.982Z,14.98
2023-03-04T01:25:15.977Z,14.65
2023-03-04T01:27:44.686Z,14.65
2023-03-04T01:30:13.430Z,13.25
2023-03-04T01:32:42.146Z,14.27
2023-03-04T01:35:10.926Z,13.13
2023-03-04T01:37:39.588Z,15.35
2023-03-04T01:40:09.640Z,13.43
2023-03-04T01:42:40.100Z,15.45
2023-03-04T01:45:13.151Z,15.02
2023-03-04T01:47:44.277Z,16.25
2023-03-04T01:50:34.167Z,16.75
2023-03-04T01:53:03.561Z,13.95
2023-03-04T01:55:32.186Z,15.20
2023-03-04T01:58:01.054Z,16.88
2023-03-04T02:00:34.251Z,14.70
2023-03-04T02:03:15.549Z,16.60
2023-03-04T02:05:47.419Z,12.32
2023-03-04T02:08:16.828Z,15.75
2023-03-04T02:10:45.299Z,17.50
2023-03-04T02:13:14.319Z,15.98
2023-03-04T02:15:43.502Z,14.43
2023-03-04T02:18:23.644Z,14.90
2023-03-04T02:21:19.626Z,15.77
2023-03-04T02:24:37.566Z,17.27
2023-03-04T02:27:06.066Z,15.30
2023-03-04T02:29:35.057Z,12.95
2023-03-04T02:32:03.991Z,16.23
2023-03-04T02:34:35.294Z,12.90
2023-03-04T02:37:04.033Z,15.48
2023-03-04T02:39:46.714Z,13.65
2023-03-04T02:42:15.470Z,14.55
2023-03-04T02:44:47.781Z,12.13
2023-03-04T02:47:18.403Z,14.93
2023-03-04T02:49:47.772Z,13.95
2023-03-04T02:52:26.488Z,17.00
2023-03-04T02:54:55.224Z,15.02
2023-03-04T02:57:23.973Z,13.85
2023-03-04T02:59:56.173Z,17.07
2023-03-04T03:02:28.175Z,14.07
2023-03-04T03:04:57.016Z,13.60
2023-03-04T03:07:27.646Z,17.38
2023-03-04T03:09:56.724Z,13.52
2023-03-04T03:12:25.196Z,14.25
2023-03-04T03:14:54.178Z,16.10
2023-03-04T03:17:24.328Z,12.82
2023-03-04T03:19:53.005Z,15.55
2023-03-04T03:22:21.465Z,13.73
2023-03-04T03:24:50.321Z,14.93
2023-03-04T03:27:18.761Z,14.00
2023-03-04T03:29:47.795Z,15.25
2023-03-04T03:32:16.273Z,13.18
2023-03-04T03:34:44.960Z,14.43
2023-03-04T03:37:13.859Z,14.63
2023-03-04T03:39:42.590Z,13.63
2023-03-04T03:42:11.081Z,14.38
2023-03-04T03:44:39.730Z,15.90
2023-03-04T03:47:08.093Z,16.95
2023-03-04T03:49:36.848Z,15.30
2023-03-04T03:52:05.289Z,14.55
2023-03-04T03:54:34.085Z,13.77
2023-03-04T03:57:02.440Z,12.73
2023-03-04T03:59:31.224Z,15.10
2023-03-04T04:01:59.643Z,16.15
2023-03-04T04:04:28.420Z,14.07
2023-03-04T04:06:56.777Z,21.33
2023-03-04T04:09:25.516Z,17.60
2023-03-04T04:11:53.891Z,12.63
2023-03-04T04:14:22.672Z,16.50
2023-03-04T04:16:51.084Z,13.52
2023-03-04T04:19:20.311Z,14.63
2023-03-04T04:21:48.856Z,19.00
2023-03-04T04:24:17.710Z,13.13
2023-03-04T04:26:46.210Z,20.60
2023-03-04T04:29:15.216Z,13.20
2023-03-04T04:31:43.635Z,13.18
2023-03-04T04:34:12.284Z,12.30
2023-03-04T04:36:40.916Z,14.10
2023-03-04T04:39:09.547Z,14.70
2023-03-04T04:41:42.144Z,16.52
2023-03-04T04:44:11.409Z,13.15
2023-03-04T04:46:40.148Z,15.05
2023-03-04T04:49:09.259Z,11.93
2023-03-04T04:51:38.409Z,14.88
2023-03-04T04:54:07.248Z,17.48
2023-03-04T04:56:35.793Z,15.90
2023-03-04T04:59:05.799Z,13.27
2023-03-04T05:01:34.687Z,13.65
2023-03-04T05:04:03.479Z,17.70
2023-03-04T05:06:31.759Z,15.05
2023-03-04T05:09:00.389Z,15.48
2023-03-04T05:11:29.420Z,13.73
2023-03-04T05:13:58.042Z,16.77
2023-03-04T05:16:26.331Z,13.88
2023-03-04T05:18:54.943Z,15.18
2023-03-04T05:21:23.236Z,11.85
2023-03-04T05:23:52.414Z,14.55
2023-03-04T05:26:20.941Z,15.25
2023-03-04T05:28:49.563Z,13.65
2023-03-04T05:31:18.256Z,14.43
2023-03-04T05:33:46.933Z,13.95
2023-03-04T05:36:15.381Z,13.48
2023-03-04T05:38:44.016Z,15.88
2023-03-04T05:41:12.292Z,13.82
2023-03-04T05:43:43.105Z,14.27
2023-03-04T05:46:15.586Z,12.13
2023-03-04T05:48:45.012Z,15.73
2023-03-04T05:51:13.315Z,12.45
2023-03-04T05:53:41.875Z,13.15
2023-03-04T05:56:11.718Z,10.30
2023-03-04T05:58:40.384Z,15.63
2023-03-04T06:01:08.743Z,11.32
2023-03-04T06:03:37.955Z,12.70
2023-03-04T06:06:06.640Z,11.63
2023-03-04T06:08:35.276Z,15.60
2023-03-04T06:11:05.130Z,11.23
2023-03-04T06:13:34.880Z,13.13
2023-03-04T06:16:03.453Z,12.68
2023-03-04T06:18:32.050Z,14.15
2023-03-04T06:21:01.843Z,10.35
2023-03-04T06:23:30.935Z,10.75
2023-03-04T06:26:00.494Z,9.30
2023-03-04T06:28:29.471Z,11.60
2023-03-04T06:30:58.131Z,13.32
2023-03-04T06:33:27.100Z,12.85
2023-03-04T06:35:56.924Z,10.05
2023-03-04T06:38:26.393Z,10.80
2023-03-04T06:40:57.140Z,17.33
2023-03-04T06:43:26.382Z,11.52
2023-03-04T06:45:54.723Z,12.50
2023-03-04T06:48:23.426Z,11.63
2023-03-04T06:50:51.693Z,11.77
2023-03-04T06:53:20.393Z,14.88
2023-03-04T06:55:49.638Z,11.48
2023-03-04T06:58:18.223Z,10.10
2023-03-04T07:00:46.613Z,10.73
2023-03-04T07:03:15.442Z,12.63
2023-03-04T07:05:44.038Z,12.15
2023-03-04T07:08:12.707Z,16.63
2023-03-04T07:10:41.150Z,11.38
2023-03-04T07:13:09.996Z,14.43
2023-03-04T07:15:38.564Z,10.35
2023-03-04T07:18:07.292Z,11.07
2023-03-04T07:20:35.830Z,19.02
2023-03-04T07:23:04.530Z,12.25
2023-03-04T07:25:32.956Z,9.85
2023-03-04T07:28:01.575Z,13.07
2023-03-04T07:30:29.964Z,12.32
2023-03-04T07:32:58.919Z,15.57
2023-03-04T07:35:27.256Z,13.73
2023-03-04T07:37:55.953Z,15.70
2023-03-04T07:40:24.461Z,13.35
2023-03-04T07:42:54.335Z,13.85
2023-03-04T07:45:22.984Z,17.15
2023-03-04T07:47:52.120Z,16.75
2023-03-04T07:50:20.803Z,13.20
2023-03-04T07:52:52.518Z,11.57
2023-03-04T07:55:20.923Z,15.45
2023-03-04T07:57:49.642Z,15.30
2023-03-04T08:00:18.973Z,14.07
2023-03-04T08:02:47.728Z,12.98
2023-03-04T08:05:16.535Z,16.55
2023-03-04T08:07:45.085Z,16.88
2023-03-04T08:10:13.374Z,15.00
2023-03-04T08:12:42.012Z,12.52
2023-03-04T08:15:10.979Z,14.82
2023-03-04T08:17:39.665Z,16.27
2023-03-04T08:20:08.881Z,12.45
2023-03-04T08:22:37.512Z,14.77
2023-03-04T08:25:06.323Z,18.77
2023-03-04T08:27:34.987Z,15.90
2023-03-04T08:30:05.590Z,14.73
2023-03-04T08:32:34.736Z,19.90
2023-03-04T08:35:03.192Z,13.90
2023-03-04T08:37:31.852Z,20.58
2023-03-04T08:40:00.179Z,18.95
2023-03-04T08:42:28.874Z,14.40
2023-03-04T08:44:57.158Z,15.68
2023-03-04T08:47:25.804Z,31.05
2023-03-04T08:49:54.391Z,28.25
2023-03-04T08:52:23.471Z,39.20
2023-03-04T08:54:51.865Z,27.90
2023-03-04T08:57:20.546Z,33.85
2023-03-04T08:59:48.793Z,32.35
2023-03-04T09:02:17.502Z,33.17
2023-03-04T09:04:45.899Z,29.73
2023-03-04T09:07:14.641Z,25.50
2023-03-04T09:09:43.065Z,32.05
2023-03-04T09:12:11.830Z,24.23
2023-03-04T09:14:40.267Z,26.38
2023-03-04T09:17:10.399Z,31.27
2023-03-04T09:19:38.982Z,25.77
2023-03-04T09:22:07.702Z,23.15
2023-03-04T09:24:36.071Z,25.40
2023-03-04T09:27:04.846Z,23.10
2023-03-04T09:29:33.406Z,25.77
2023-03-04T09:32:02.119Z,24.83
2023-03-04T09:34:30.504Z,24.73
2023-03-04T09:36:59.256Z,24.35
2023-03-04T09:39:27.952Z,24.45
2023-03-04T09:41:58.435Z,21.30
2023-03-04T09:44:41.445Z,23.90
2023-03-04T09:50:01.118Z,19.58
2023-03-04T09:52:52.925Z,24.67
2023-03-04T09:55:34.272Z,22.75
2023-03-04T09:58:13.882Z,20.52
2023-03-04T10:00:52.647Z,17.33
2023-03-04T10:03:25.725Z,19.55
2023-03-04T10:06:06.825Z,22.73
2023-03-04T10:08:47.413Z,19.13
2023-03-04T10:11:24.959Z,17.77
2023-03-04T10:14:10.897Z,18.30
2023-03-04T10:17:21.791Z,17.27
2023-03-04T10:20:01.929Z,17.25
2023-03-04T10:22:37.740Z,19.77
2023-03-04T10:25:28.371Z,18.95
2023-03-04T10:28:16.778Z,22.83
2023-03-04T10:31:06.333Z,20.48
2023-03-04T10:33:39.812Z,18.13
2023-03-04T10:36:31.361Z,18.27
2023-03-04T10:39:13.432Z,16.77
2023-03-04T10:41:54.231Z,17.02
2023-03-04T10:44:23.268Z,14.95
2023-03-04T10:46:54.782Z,17.65
2023-03-04T10:49:24.994Z,17.38
2023-03-04T10:52:15.809Z,15.80
2023-03-04T10:54:53.906Z,14.85
2023-03-04T10:57:43.891Z,18.75
2023-03-04T11:00:17.852Z,20.20
2023-03-04T11:02:47.419Z,12.90
2023-03-04T11:05:16.639Z,15.65
2023-03-04T11:07:55.212Z,16.88
2023-03-04T11:10:37.051Z,19.80
2023-03-04T11:13:23.711Z,14.30
2023-03-04T11:15:58.111Z,15.13
2023-03-04T11:18:44.946Z,31.63
2023-03-04T11:21:26.193Z,32.72
2023-03-04T11:23:59.372Z,28.88
2023-03-04T11:26:34.336Z,28.70
2023-03-04T11:29:16.645Z,28.20
2023-03-04T11:32:03.784Z,26.48
2023-03-04T11:34:50.477Z,30.83
2023-03-04T11:38:06.263Z,24.70
2023-03-04T11:40:38.976Z,27.13
2023-03-04T11:43:18.493Z,37.95
2023-03-04T11:46:24.885Z,27.52
2023-03-04T11:49:21.085Z,30.58
2023-03-04T11:52:20.387Z,30.88
2023-03-04T11:55:46.008Z,28.08
2023-03-04T11:58:51.439Z,28.13
2023-03-04T12:01:32.172Z,25.48
2023-03-04T12:04:16.495Z,24.17
2023-03-04T12:07:01.627Z,21.80
2023-03-04T12:09:40.269Z,26.23
2023-03-04T12:12:51.910Z,24.83
2023-03-04T12:15:55.429Z,23.85
2023-03-04T12:19:08.168Z,27.25
2023-03-04T12:22:06.644Z,22.60
2023-03-04T12:25:08.579Z,24.40
2023-03-04T12:27:58.802Z,30.77
2023-03-04T12:31:05.055Z,29.48
2023-03-04T12:33:53.228Z,22.80
2023-03-04T12:36:30.662Z,25.88
2023-03-04T12:39:13.521Z,29.27
2023-03-04T12:42:17.187Z,25.52
2023-03-04T12:45:18.671Z,28.38
2023-03-04T12:48:28.667Z,24.75
2023-03-04T12:51:18.168Z,22.65
2023-03-04T12:54:26.261Z,23.88
2023-03-04T12:57:03.166Z,30.42
2023-03-04T12:59:50.839Z,23.90
2023-03-04T13:02:37.662Z,23.58
2023-03-04T13:05:46.480Z,24.58
2023-03-04T13:08:46.178Z,30.63
2023-03-04T13:11:26.480Z,27.15
2023-03-04T13:14:17.527Z,30.67
2023-03-04T13:16:49.618Z,27.63
2023-03-04T13:19:57.082Z,29.92
2023-03-04T13:22:50.473Z,24.63
2023-03-04T13:25:46.263Z,28.45
2023-03-04T13:28:22.532Z,29.17
2023-03-04T13:30:59.656Z,27.45
2023-03-04T13:33:27.907Z,30.35
2023-03-04T13:36:26.202Z,26.00
2023-03-04T13:39:18.502Z,25.65
2023-03-04T13:41:54.247Z,19.95
2023-03-04T13:44:57.144Z,17.13
2023-03-04T13:47:42.613Z,19.90
2023-03-04T13:50:48.381Z,22.48
2023-03-04T13:53:41.079Z,18.20
2023-03-04T13:56:12.942Z,16.75
2023-03-04T13:58:41.567Z,18.40
2023-03-04T14:01:32.247Z,19.70
2023-03-04T14:04:01.886Z,16.40
2023-03-04T14:06:31.919Z,22.67
2023-03-04T14:09:00.746Z,20.25
2023-03-04T14:11:42.131Z,20.17
2023-03-04T14:14:17.188Z,16.30
2023-03-04T14:16:55.000Z,17.48
2023-03-04T14:19:38.666Z,21.27
2023-03-04T14:22:28.488Z,16.10
2023-03-04T14:25:22.679Z,15.52
2023-03-04T14:27:51.198Z,15.90
2023-03-04T14:30:41.578Z,20.20
2023-03-04T14:33:18.137Z,18.45
2023-03-04T14:35:52.001Z,15.80
2023-03-04T14:38:35.689Z,18.10
2023-03-04T14:41:26.031Z,19.48
2023-03-04T14:44:05.569Z,21.67
2023-03-04T14:46:49.309Z,17.05
2023-03-04T14:49:25.586Z,17.02
2023-03-04T14:51:55.483Z,16.88
2023-03-04T14:54:39.254Z,15.75
2023-03-04T14:57:22.555Z,17.20
2023-03-04T14:59:51.670Z,15.73
2023-03-04T15:02:41.833Z,18.15
2023-03-04T15:05:17.501Z,18.23
2023-03-04T15:07:52.755Z,16.02
2023-03-04T15:10:27.973Z,15.35
2023-03-04T15:13:01.455Z,15.45
2023-03-04T15:15:46.583Z,22.13
2023-03-04T15:18:26.621Z,17.85
2023-03-04T15:20:59.714Z,19.67
2023-03-04T15:23:30.295Z,16.27
2023-03-04T15:26:04.022Z,18.52
2023-03-04T15:28:38.010Z,16.10
2023-03-04T15:31:06.874Z,16.67
2023-03-04T15:33:35.959Z,18.40
2023-03-04T15:36:04.698Z,17.00
2023-03-04T15:38:33.452Z,17.13
2023-03-04T15:41:02.206Z,17.05
2023-03-04T15:43:30.945Z,16.25
2023-03-04T15:45:59.501Z,16.85
2023-03-04T15:48:28.452Z,17.85
2023-03-04T15:51:03.652Z,16.02
2023-03-04T15:53:44.976Z,16.90
2023-03-04T15:56:17.166Z,18.48
2023-03-04T15:58:48.518Z,25.52
2023-03-04T16:01:17.680Z,17.95
2023-03-04T16:03:46.395Z,15.02
2023-03-04T16:06:15.942Z,17.13
2023-03-04T16:08:44.837Z,23.38
2023-03-04T16:11:19.246Z,16.55
2023-03-04T16:13:48.233Z,20.38
2023-03-04T16:16:16.814Z,18.00
2023-03-04T16:18:45.620Z,21.63
2023-03-04T16:21:19.022Z,18.35
2023-03-04T16:23:49.320Z,18.33
2023-03-04T16:26:25.135Z,21.23
2023-03-04T16:28:54.187Z,20.13
2023-03-04T16:31:22.782Z,16.98
2023-03-04T16:33:51.837Z,17.15
2023-03-04T16:36:29.057Z,17.17
2023-03-04T16:38:59.920Z,16.65
2023-03-04T16:41:30.913Z,18.15
2023-03-04T16:44:00.685Z,15.25
2023-03-04T16:46:30.329Z,21.25
2023-03-04T16:48:59.088Z,14.23
2023-03-04T16:51:27.450Z,14.80
2023-03-04T16:53:58.068Z,15.02
2023-03-04T16:56:26.595Z,15.18
2023-03-04T16:58:55.222Z,14.82
2023-03-04T17:01:28.815Z,19.75
2023-03-04T17:03:57.887Z,22.38
2023-03-04T17:06:26.225Z,14.93
2023-03-04T17:08:54.805Z,17.27
2023-03-04T17:11:23.869Z,13.55
2023-03-04T17:13:52.721Z,15.77
2023-03-04T17:16:21.168Z,15.38
2023-03-04T17:18:50.005Z,14.82
2023-03-04T17:21:21.609Z,16.75
2023-03-04T17:23:50.446Z,18.10
2023-03-04T17:26:23.172Z,19.05
2023-03-04T17:31:20.604Z,18.83
2023-03-04T17:33:49.610Z,16.52
2023-03-04T17:36:18.879Z,17.92
2023-03-04T17:38:49.614Z,17.02
2023-03-04T17:41:18.951Z,19.23
2023-03-04T17:43:49.836Z,19.95
2023-03-04T17:46:20.732Z,16.63
2023-03-04T17:48:49.858Z,18.35
2023-03-04T17:51:19.015Z,21.13
2023-03-04T17:53:47.836Z,16.95
2023-03-04T17:56:16.188Z,21.63
2023-03-04T17:58:44.785Z,19.58
2023-03-04T18:01:19.479Z,18.15
2023-03-04T18:03:48.744Z,16.33
2023-03-04T18:06:17.425Z,18.23
2023-03-04T18:08:46.840Z,17.80
2023-03-04T18:11:15.308Z,21.77
2023-03-04T18:13:44.552Z,19.42
2023-03-04T18:16:15.194Z,19.25
2023-03-04T18:18:44.016Z,22.15
2023-03-04T18:21:13.980Z,19.08
2023-03-04T18:23:42.712Z,21.65
2023-03-04T18:26:11.332Z,17.48
2023-03-04T18:28:40.467Z,22.48
2023-03-04T18:31:10.580Z,22.45
2023-03-04T18:33:40.005Z,16.40
2023-03-04T18:36:09.798Z,21.42
2023-03-04T18:38:38.668Z,21.60
2023-03-04T18:41:09.391Z,17.98
2023-03-04T18:43:38.278Z,21.58
2023-03-04T18:46:18.547Z,17.23
2023-03-04T18:49:00.350Z,23.63
2023-03-04T18:51:28.796Z,18.77
2023-03-04T18:53:57.945Z,17.27
2023-03-04T18:56:48.244Z,15.65
2023-03-04T18:59:26.918Z,15.63
2023-03-04T19:01:55.313Z,17.38
2023-03-04T19:04:23.964Z,20.30
2023-03-04T19:06:52.943Z,20.02
2023-03-04T19:09:21.898Z,16.88
2023-03-04T19:11:50.365Z,20.73
2023-03-04T19:14:19.282Z,18.10
2023-03-04T19:16:48.779Z,23.30
2023-03-04T19:19:17.732Z,21.10
2023-03-04T19:21:46.166Z,23.23
2023-03-04T19:24:15.122Z,20.98
2023-03-04T19:26:43.740Z,24.08
2023-03-04T19:29:12.699Z,21.30
2023-03-04T19:31:41.582Z,21.90
2023-03-04T19:34:10.605Z,24.25
2023-03-04T19:36:39.234Z,23.63
2023-03-04T19:39:09.664Z,19.67
2023-03-04T19:41:38.063Z,23.98
2023-03-04T19:44:06.839Z,22.27
2023-03-04T19:46:35.190Z,20.17
2023-03-04T19:49:05.225Z,23.25
2023-03-04T19:51:34.120Z,22.48
2023-03-04T19:54:02.982Z,19.85
2023-03-04T19:56:31.397Z,22.30
2023-03-04T19:59:00.245Z,22.95
2023-03-04T20:01:30.884Z,21.73
2023-03-04T20:04:02.458Z,24.83
2023-03-04T20:06:31.112Z,23.60
2023-03-04T20:09:00.979Z,25.77
2023-03-04T20:11:29.903Z,19.67
2023-03-04T20:14:00.329Z,23.70
2023-03-04T20:16:29.071Z,26.25
2023-03-04T20:19:00.772Z,22.70
2023-03-04T20:21:58.311Z,21.45
2023-03-04T20:24:27.248Z,23.95
2023-03-04T20:26:55.952Z,22.85
2023-03-04T20:29:27.246Z,24.67
2023-03-04T20:31:55.686Z,26.67
2023-03-04T20:34:25.612Z,25.85
2023-03-04T20:36:53.941Z,25.65
2023-03-04T20:39:29.041Z,23.60
2023-03-04T20:41:58.419Z,24.77
2023-03-04T20:44:27.566Z,27.30
2023-03-04T20:46:56.047Z,29.27
2023-03-04T20:49:26.984Z,27.33
2023-03-04T20:52:00.417Z,28.38
2023-03-04T20:54:30.359Z,31.08
2023-03-04T20:56:58.889Z,26.33
2023-03-04T20:59:27.960Z,26.90
2023-03-04T21:01:56.834Z,28.17
2023-03-04T21:04:25.580Z,28.85
2023-03-04T21:06:54.117Z,30.05
2023-03-04T21:09:23.427Z,30.40
2023-03-04T21:11:52.277Z,27.55
2023-03-04T21:14:26.606Z,26.95
2023-03-04T21:16:58.024Z,25.30
2023-03-04T21:19:32.839Z,26.70
2023-03-04T21:22:01.697Z,26.33
2023-03-04T21:24:33.314Z,25.40
2023-03-04T21:27:02.185Z,25.92
2023-03-04T21:29:31.042Z,26.98
2023-03-04T21:32:20.865Z,30.08
2023-03-04T21:34:52.528Z,33.95
2023-03-04T21:37:22.358Z,29.27
2023-03-04T21:39:51.280Z,31.70
2023-03-04T21:42:20.153Z,30.60
2023-03-04T21:44:50.724Z,26.58
2023-03-04T21:47:21.063Z,25.77
2023-03-04T21:49:50.007Z,27.20
2023-03-04T21:52:19.815Z,30.38
2023-03-04T21:54:48.824Z,26.10
2023-03-04T21:57:17.597Z,30.08
2023-03-04T21:59:46.608Z,27.50
2023-03-04T22:02:17.288Z,29.38
2023-03-04T22:04:46.020Z,26.33
2023-03-04T22:07:14.445Z,27.27
2023-03-04T22:09:43.168Z,31.92
2023-03-04T22:12:11.544Z,30.25
2023-03-04T22:14:40.211Z,32.63
2023-03-04T22:17:08.753Z,30.75
2023-03-04T22:19:37.540Z,28.33
2023-03-04T22:22:06.619Z,29.48
2023-03-04T22:24:35.801Z,32.83
2023-03-04T22:27:04.523Z,34.53
2023-03-04T22:29:33.173Z,38.55
2023-03-04T22:32:01.652Z,33.25
2023-03-04T22:34:30.645Z,32.85
2023-03-04T22:36:58.973Z,33.72
2023-03-04T22:39:27.631Z,36.15
2023-03-04T22:41:56.055Z,36.83
2023-03-04T22:44:24.915Z,33.20
2023-03-04T22:46:53.210Z,38.88
2023-03-04T22:49:21.832Z,38.25
2023-03-04T22:51:50.185Z,40.17
2023-03-04T22:54:19.242Z,42.95
2023-03-04T22:56:47.540Z,34.45
2023-03-04T22:59:16.196Z,39.00
2023-03-04T23:01:44.618Z,36.80
2023-03-04T23:04:13.222Z,43.17
2023-03-04T23:06:41.664Z,40.33
2023-03-04T23:09:10.350Z,37.25
2023-03-04T23:11:39.660Z,35.95
2023-03-04T23:14:08.716Z,43.70
2023-03-04T23:16:41.252Z,42.92
2023-03-04T23:19:15.062Z,40.60
2023-03-04T23:21:43.652Z,36.55
2023-03-04T23:24:12.706Z,42.72
2023-03-04T23:26:41.598Z,36.17
2023-03-04T23:29:12.486Z,34.92
2023-03-04T23:31:40.822Z,38.00
2023-03-04T23:34:09.605Z,40.60
2023-03-04T23:36:38.217Z,35.55
2023-03-04T23:39:07.402Z,35.75
2023-03-04T23:41:35.875Z,38.70
2023-03-04T23:44:05.096Z,36.35
2023-03-04T23:46:33.514Z,36.53
2023-03-04T23:49:02.105Z,42.13
2023-03-04T23:51:31.220Z,40.53
2023-03-04T23:53:59.980Z,35.83
2023-03-04T23:56:30.509Z,38.55
2023-03-04T23:59:00.012Z,42.65
